createdAt,value
2022-07-25T00:00:59.007Z,77.15
2022-07-25T00:01:59.133Z,76.98
2022-07-25T00:02:58.983Z,76.28
2022-07-25T00:03:59.009Z,76.11
2022-07-25T00:04:59.017Z,76.45
2022-07-25T00:05:58.951Z,77.60
2022-07-25T00:06:58.946Z,77.13
2022-07-25T00:07:58.938Z,78.34
2022-07-25T00:08:58.934Z,78.95
2022-07-25T00:09:58.913Z,79.05
2022-07-25T00:10:58.901Z,79.15
2022-07-25T00:11:58.892Z,79.15
2022-07-25T00:12:58.879Z,78.78
2022-07-25T00:13:59.885Z,79.19
2022-07-25T00:14:58.872Z,79.53
2022-07-25T00:15:58.905Z,79.83
2022-07-25T00:16:58.841Z,81.01
2022-07-25T00:17:58.843Z,81.15
2022-07-25T00:18:58.875Z,80.74
2022-07-25T00:19:58.812Z,81.09
2022-07-25T00:20:58.805Z,81.59
2022-07-25T00:21:58.790Z,82.70
2022-07-25T00:22:58.786Z,82.90
2022-07-25T00:23:58.781Z,83.01
2022-07-25T00:24:58.764Z,83.01
2022-07-25T00:25:58.759Z,82.90
2022-07-25T00:26:58.769Z,83.01
2022-07-25T00:27:58.733Z,81.76
2022-07-25T00:28:58.734Z,81.35
2022-07-25T00:29:58.714Z,81.15
2022-07-25T00:30:58.767Z,81.55
2022-07-25T00:31:58.700Z,80.60
2022-07-25T00:32:58.690Z,80.60
2022-07-25T00:33:58.683Z,80.50
2022-07-25T00:34:58.667Z,80.60
2022-07-25T00:35:58.655Z,80.80
2022-07-25T00:36:58.644Z,80.26
2022-07-25T00:37:58.643Z,80.06
2022-07-25T00:38:58.637Z,79.96
2022-07-25T00:39:58.618Z,80.26
2022-07-25T00:40:58.613Z,80.46
2022-07-25T00:41:58.598Z,81.37
2022-07-25T00:42:58.591Z,80.46
2022-07-25T00:43:58.598Z,81.17
2022-07-25T00:44:58.578Z,80.43
2022-07-25T00:45:58.751Z,80.83
2022-07-25T00:46:58.681Z,80.63
2022-07-25T00:47:58.545Z,80.83
2022-07-25T00:48:58.604Z,80.97
2022-07-25T00:49:58.520Z,80.57
2022-07-25T00:50:58.510Z,80.46
2022-07-25T00:51:58.499Z,80.16
2022-07-25T00:52:58.495Z,80.66
2022-07-25T00:53:58.503Z,80.26
2022-07-25T00:54:58.473Z,80.20
2022-07-25T00:55:58.460Z,80.00
2022-07-25T00:56:58.447Z,80.44
2022-07-25T00:57:58.439Z,80.30
2022-07-25T00:58:58.443Z,81.41
2022-07-25T00:59:58.416Z,81.21
2022-07-25T01:00:58.410Z,80.40
2022-07-25T01:01:58.459Z,80.60
2022-07-25T01:02:58.649Z,79.90
2022-07-25T01:03:58.403Z,80.46
2022-07-25T01:04:58.378Z,81.51
2022-07-25T01:05:58.370Z,81.31
2022-07-25T01:06:58.348Z,81.21
2022-07-25T01:07:59.351Z,81.11
2022-07-25T01:08:58.347Z,81.41
2022-07-25T01:09:58.326Z,81.31
2022-07-25T01:10:58.322Z,80.74
2022-07-25T01:11:58.313Z,80.20
2022-07-25T01:12:58.298Z,80.71
2022-07-25T01:13:58.308Z,80.00
2022-07-25T01:14:58.284Z,80.30
2022-07-25T01:15:58.336Z,81.21
2022-07-25T01:16:58.266Z,81.41
2022-07-25T01:17:58.258Z,80.64
2022-07-25T01:18:58.259Z,81.21
2022-07-25T01:19:58.227Z,80.84
2022-07-25T01:20:58.230Z,81.05
2022-07-25T01:21:58.208Z,81.45
2022-07-25T01:22:58.194Z,81.79
2022-07-25T01:23:58.189Z,81.69
2022-07-25T01:24:58.191Z,81.90
2022-07-25T01:25:58.177Z,81.90
2022-07-25T01:26:58.161Z,82.30
2022-07-25T01:27:58.152Z,82.30
2022-07-25T01:28:58.145Z,81.49
2022-07-25T01:29:58.141Z,81.09
2022-07-25T01:30:58.145Z,80.78
2022-07-25T01:31:58.110Z,81.09
2022-07-25T01:32:58.101Z,81.49
2022-07-25T01:33:58.089Z,81.39
2022-07-25T01:34:58.092Z,81.25
2022-07-25T01:35:58.061Z,81.76
2022-07-25T01:36:58.074Z,81.79
2022-07-25T01:37:58.050Z,81.59
2022-07-25T01:38:58.037Z,81.90
2022-07-25T01:39:58.051Z,81.69
2022-07-25T01:40:58.019Z,81.29
2022-07-25T01:41:58.006Z,81.29
2022-07-25T01:42:57.997Z,81.79
2022-07-25T01:43:57.983Z,80.98
2022-07-25T01:44:57.992Z,82.10
2022-07-25T01:45:58.020Z,81.69
2022-07-25T01:46:57.942Z,81.18
2022-07-25T01:47:58.951Z,79.57
2022-07-25T01:48:57.984Z,79.91
2022-07-25T01:49:57.940Z,80.15
2022-07-25T01:50:57.916Z,80.86
2022-07-25T01:51:57.910Z,80.15
2022-07-25T01:52:57.909Z,80.35
2022-07-25T01:53:57.888Z,80.96
2022-07-25T01:54:57.902Z,81.37
2022-07-25T01:55:57.866Z,81.67
2022-07-25T01:56:57.856Z,82.38
2022-07-25T01:57:57.847Z,83.23
2022-07-25T01:58:57.837Z,82.82
2022-07-25T01:59:57.836Z,82.07
2022-07-25T02:00:57.854Z,81.57
2022-07-25T02:01:57.879Z,82.78
2022-07-25T02:02:57.798Z,82.38
2022-07-25T02:03:57.792Z,81.97
2022-07-25T02:04:57.903Z,81.97
2022-07-25T02:05:57.766Z,81.77
2022-07-25T02:06:58.759Z,82.17
2022-07-25T02:07:57.748Z,82.38
2022-07-25T02:08:57.741Z,82.68
2022-07-25T02:09:57.738Z,82.98
2022-07-25T02:10:57.718Z,82.92
2022-07-25T02:11:57.708Z,83.63
2022-07-25T02:12:57.697Z,84.58
2022-07-25T02:13:57.701Z,84.85
2022-07-25T02:14:57.692Z,85.50
2022-07-25T02:15:57.671Z,85.30
2022-07-25T02:16:57.717Z,85.19
2022-07-25T02:17:57.644Z,84.64
2022-07-25T02:18:57.637Z,84.14
2022-07-25T02:19:57.642Z,83.73
2022-07-25T02:20:57.622Z,83.83
2022-07-25T02:21:57.610Z,84.04
2022-07-25T02:22:57.596Z,83.94
2022-07-25T02:23:57.592Z,83.73
2022-07-25T02:24:57.592Z,84.44
2022-07-25T02:25:57.564Z,84.55
2022-07-25T02:26:57.554Z,84.85
2022-07-25T02:27:57.551Z,85.09
2022-07-25T02:28:57.534Z,84.55
2022-07-25T02:29:57.542Z,84.75
2022-07-25T02:30:57.583Z,84.85
2022-07-25T02:31:57.515Z,85.15
2022-07-25T02:32:57.498Z,84.50
2022-07-25T02:33:57.487Z,84.04
2022-07-25T02:34:57.490Z,83.63
2022-07-25T02:35:57.465Z,83.94
2022-07-25T02:36:57.457Z,83.83
2022-07-25T02:37:57.451Z,84.44
2022-07-25T02:38:57.434Z,84.18
2022-07-25T02:39:57.434Z,84.18
2022-07-25T02:40:57.415Z,83.17
2022-07-25T02:41:57.412Z,84.58
2022-07-25T02:42:57.397Z,83.26
2022-07-25T02:43:57.380Z,83.87
2022-07-25T02:44:58.396Z,84.89
2022-07-25T02:45:57.460Z,84.44
2022-07-25T02:46:57.359Z,84.78
2022-07-25T02:47:57.349Z,85.09
2022-07-25T02:48:57.397Z,85.09
2022-07-25T02:49:57.341Z,85.60
2022-07-25T02:50:57.321Z,84.63
2022-07-25T02:51:57.302Z,85.07
2022-07-25T02:52:57.291Z,86.80
2022-07-25T02:53:58.691Z,87.04
2022-07-25T02:54:58.287Z,86.63
2022-07-25T02:55:57.268Z,86.59
2022-07-25T02:56:57.257Z,86.80
2022-07-25T02:57:57.243Z,86.08
2022-07-25T02:58:57.242Z,86.39
2022-07-25T02:59:57.242Z,85.17
2022-07-25T03:00:57.253Z,85.17
2022-07-25T03:01:57.208Z,85.38
2022-07-25T03:02:57.194Z,85.47
2022-07-25T03:03:57.266Z,85.58
2022-07-25T03:04:57.182Z,85.27
2022-07-25T03:05:57.168Z,85.47
2022-07-25T03:06:57.158Z,85.38
2022-07-25T03:07:57.147Z,85.47
2022-07-25T03:08:57.132Z,85.47
2022-07-25T03:09:57.137Z,85.94
2022-07-25T03:10:57.113Z,85.98
2022-07-25T03:11:57.097Z,85.33
2022-07-25T03:12:57.090Z,85.68
2022-07-25T03:13:57.088Z,85.68
2022-07-25T03:14:57.083Z,85.98
2022-07-25T03:15:57.071Z,85.74
2022-07-25T03:16:57.094Z,85.17
2022-07-25T03:17:57.041Z,85.17
2022-07-25T03:18:57.032Z,86.59
2022-07-25T03:19:57.048Z,86.29
2022-07-25T03:20:57.015Z,86.90
2022-07-25T03:21:57.003Z,87.10
2022-07-25T03:22:56.991Z,86.63
2022-07-25T03:23:56.989Z,85.82
2022-07-25T03:24:56.970Z,86.53
2022-07-25T03:25:56.977Z,87.34
2022-07-25T03:26:56.952Z,88.16
2022-07-25T03:27:56.958Z,87.95
2022-07-25T03:28:56.933Z,88.67
2022-07-25T03:29:56.928Z,88.87
2022-07-25T03:30:56.927Z,89.68
2022-07-25T03:31:56.924Z,89.72
2022-07-25T03:32:56.895Z,89.88
2022-07-25T03:33:56.885Z,88.87
2022-07-25T03:34:56.871Z,88.67
2022-07-25T03:35:56.870Z,88.21
2022-07-25T03:36:56.854Z,88.21
2022-07-25T03:37:56.854Z,87.40
2022-07-25T03:38:56.833Z,87.20
2022-07-25T03:39:56.821Z,87.20
2022-07-25T03:40:56.824Z,88.32
2022-07-25T03:41:56.801Z,87.92
2022-07-25T03:42:56.803Z,87.81
2022-07-25T03:43:56.784Z,87.71
2022-07-25T03:44:56.776Z,86.96
2022-07-25T03:45:56.880Z,85.98
2022-07-25T03:46:56.752Z,86.25
2022-07-25T03:47:56.746Z,86.65
2022-07-25T03:48:56.787Z,86.25
2022-07-25T03:49:56.723Z,86.05
2022-07-25T03:50:56.729Z,86.05
2022-07-25T03:51:56.711Z,86.25
2022-07-25T03:52:56.700Z,86.05
2022-07-25T03:53:56.688Z,86.76
2022-07-25T03:54:56.681Z,87.37
2022-07-25T03:55:56.678Z,87.26
2022-07-25T03:56:56.656Z,86.35
2022-07-25T03:57:56.647Z,86.61
2022-07-25T03:58:56.631Z,85.24
2022-07-25T03:59:56.626Z,85.80
2022-07-25T04:00:56.685Z,84.72
2022-07-25T04:01:56.646Z,84.83
2022-07-25T04:02:56.611Z,85.03
2022-07-25T04:03:56.590Z,85.13
2022-07-25T04:04:56.573Z,85.64
2022-07-25T04:05:56.591Z,85.13
2022-07-25T04:06:56.553Z,85.33
2022-07-25T04:07:56.550Z,85.53
2022-07-25T04:08:56.536Z,86.65
2022-07-25T04:09:56.526Z,85.98
2022-07-25T04:10:56.529Z,86.08
2022-07-25T04:11:56.503Z,85.03
2022-07-25T04:12:56.503Z,85.13
2022-07-25T04:13:56.485Z,86.25
2022-07-25T04:14:56.475Z,85.53
2022-07-25T04:15:56.473Z,85.33
2022-07-25T04:16:56.482Z,85.80
2022-07-25T04:17:56.453Z,85.80
2022-07-25T04:18:56.874Z,85.09
2022-07-25T04:19:56.657Z,86.21
2022-07-25T04:20:56.435Z,86.21
2022-07-25T04:21:56.406Z,85.70
2022-07-25T04:22:56.460Z,84.99
2022-07-25T04:23:56.400Z,85.90
2022-07-25T04:24:56.407Z,85.70
2022-07-25T04:25:56.404Z,86.00
2022-07-25T04:26:56.360Z,86.31
2022-07-25T04:27:56.352Z,86.00
2022-07-25T04:28:56.342Z,86.61
2022-07-25T04:29:56.344Z,85.70
2022-07-25T04:30:56.328Z,86.31
2022-07-25T04:31:56.381Z,86.51
2022-07-25T04:32:56.306Z,85.76
2022-07-25T04:33:56.297Z,86.16
2022-07-25T04:34:56.289Z,86.27
2022-07-25T04:35:57.310Z,85.46
2022-07-25T04:36:56.266Z,86.13
2022-07-25T04:37:56.260Z,85.62
2022-07-25T04:38:56.246Z,85.42
2022-07-25T04:39:56.224Z,85.11
2022-07-25T04:40:56.235Z,85.17
2022-07-25T04:41:56.204Z,85.17
2022-07-25T04:42:56.198Z,85.11
2022-07-25T04:43:56.194Z,84.56
2022-07-25T04:44:56.173Z,84.56
2022-07-25T04:45:56.257Z,85.03
2022-07-25T04:46:56.164Z,84.83
2022-07-25T04:47:56.155Z,84.33
2022-07-25T04:48:56.238Z,84.83
2022-07-25T04:49:56.133Z,84.33
2022-07-25T04:50:56.144Z,83.92
2022-07-25T04:51:56.106Z,84.12
2022-07-25T04:52:56.109Z,84.39
2022-07-25T04:53:56.092Z,83.78
2022-07-25T04:54:56.081Z,83.78
2022-07-25T04:55:56.088Z,84.65
2022-07-25T04:56:56.065Z,84.85
2022-07-25T04:57:56.046Z,85.19
2022-07-25T04:58:56.037Z,85.05
2022-07-25T04:59:57.046Z,86.07
2022-07-25T05:00:56.074Z,84.95
2022-07-25T05:01:56.048Z,84.45
2022-07-25T05:02:56.006Z,84.34
2022-07-25T05:03:55.995Z,84.25
2022-07-25T05:04:55.983Z,84.34
2022-07-25T05:05:55.981Z,84.04
2022-07-25T05:06:55.968Z,84.51
2022-07-25T05:07:55.982Z,84.31
2022-07-25T05:08:55.941Z,84.11
2022-07-25T05:09:55.937Z,84.31
2022-07-25T05:10:55.928Z,84.41
2022-07-25T05:11:56.644Z,83.80
2022-07-25T05:12:56.907Z,84.11
2022-07-25T05:13:55.888Z,84.61
2022-07-25T05:14:55.873Z,84.20
2022-07-25T05:15:55.940Z,84.31
2022-07-25T05:16:55.925Z,82.79
2022-07-25T05:17:55.856Z,82.35
2022-07-25T05:18:55.841Z,82.14
2022-07-25T05:19:55.828Z,82.55
2022-07-25T05:20:55.853Z,82.71
2022-07-25T05:21:55.815Z,82.07
2022-07-25T05:22:57.575Z,81.56
2022-07-25T05:23:55.804Z,81.46
2022-07-25T05:24:55.805Z,80.31
2022-07-25T05:25:55.803Z,79.71
2022-07-25T05:26:55.765Z,79.77
2022-07-25T05:27:55.765Z,79.83
2022-07-25T05:28:55.762Z,79.53
2022-07-25T05:29:55.752Z,79.23
2022-07-25T05:30:55.915Z,79.19
2022-07-25T05:31:55.774Z,78.69
2022-07-25T05:32:56.715Z,78.69
2022-07-25T05:33:55.871Z,78.99
2022-07-25T05:34:55.702Z,78.59
2022-07-25T05:35:55.743Z,78.59
2022-07-25T05:36:55.720Z,78.39
2022-07-25T05:37:55.722Z,78.39
2022-07-25T05:38:55.682Z,78.65
2022-07-25T05:39:55.735Z,77.95
2022-07-25T05:40:55.687Z,77.00
2022-07-25T05:41:55.620Z,76.43
2022-07-25T05:43:00.800Z,76.54
2022-07-25T05:43:57.637Z,77.24
2022-07-25T05:44:55.591Z,77.75
2022-07-25T05:45:55.603Z,77.95
2022-07-25T05:46:55.621Z,77.64
2022-07-25T05:47:55.569Z,78.05
2022-07-25T05:48:55.571Z,77.95
2022-07-25T05:49:55.542Z,78.01
2022-07-25T05:50:55.532Z,77.70
2022-07-25T05:51:55.554Z,76.97
2022-07-25T05:52:55.541Z,76.43
2022-07-25T05:53:55.598Z,75.89
2022-07-25T05:54:55.518Z,75.89
2022-07-25T05:55:55.494Z,75.35
2022-07-25T05:56:55.470Z,73.64
2022-07-25T05:57:55.456Z,73.14
2022-07-25T05:58:55.440Z,72.80
2022-07-25T05:59:55.446Z,72.10
2022-07-25T06:00:55.439Z,71.30
2022-07-25T06:01:55.531Z,71.86
2022-07-25T06:02:55.535Z,72.74
2022-07-25T06:03:55.435Z,72.13
2022-07-25T06:04:55.458Z,71.63
2022-07-25T06:05:55.434Z,71.33
2022-07-25T06:06:55.399Z,72.00
2022-07-25T06:07:55.441Z,71.46
2022-07-25T06:08:55.423Z,70.36
2022-07-25T06:09:55.382Z,69.86
2022-07-25T06:10:56.417Z,70.06
2022-07-25T06:12:00.621Z,70.83
2022-07-25T06:12:57.337Z,69.93
2022-07-25T06:13:55.395Z,69.42
2022-07-25T06:14:55.311Z,69.69
2022-07-25T06:15:55.375Z,68.39
2022-07-25T06:16:55.353Z,68.62
2022-07-25T06:17:55.301Z,68.69
2022-07-25T06:18:55.316Z,68.49
2022-07-25T06:19:55.265Z,68.46
2022-07-25T06:20:55.305Z,67.25
2022-07-25T06:21:55.254Z,66.93
2022-07-25T06:22:55.245Z,67.02
2022-07-25T06:23:55.216Z,66.69
2022-07-25T06:24:55.205Z,66.69
2022-07-25T06:25:55.278Z,66.49
2022-07-25T06:26:55.184Z,66.06
2022-07-25T06:27:55.204Z,65.36
2022-07-25T06:28:55.185Z,66.33
2022-07-25T06:29:55.165Z,64.63
2022-07-25T06:30:55.221Z,65.30
2022-07-25T06:31:55.181Z,65.13
2022-07-25T06:32:55.138Z,64.63
2022-07-25T06:33:55.187Z,64.60
2022-07-25T06:34:55.139Z,64.80
2022-07-25T06:35:55.104Z,63.57
2022-07-25T06:36:55.093Z,62.77
2022-07-25T06:37:55.087Z,62.57
2022-07-25T06:38:55.167Z,62.07
2022-07-25T06:39:55.104Z,63.27
2022-07-25T06:40:55.128Z,64.37
2022-07-25T06:41:55.104Z,62.87
2022-07-25T06:42:55.073Z,62.48
2022-07-25T06:43:55.037Z,63.27
2022-07-25T06:44:55.031Z,62.74
2022-07-25T06:45:55.013Z,62.74
2022-07-25T06:46:55.058Z,62.64
2022-07-25T06:47:54.986Z,61.55
2022-07-25T06:48:55.027Z,62.94
2022-07-25T06:49:55.048Z,63.34
2022-07-25T06:50:54.992Z,63.01
2022-07-25T06:51:55.007Z,61.99
2022-07-25T06:52:54.979Z,61.69
2022-07-25T06:53:54.985Z,61.99
2022-07-25T06:54:54.948Z,61.76
2022-07-25T06:55:54.953Z,60.83
2022-07-25T06:56:54.988Z,60.33
2022-07-25T06:57:55.022Z,61.10
2022-07-25T06:58:54.921Z,61.00
2022-07-25T06:59:54.878Z,60.60
2022-07-25T07:00:55.923Z,60.00
2022-07-25T07:01:54.913Z,59.38
2022-07-25T07:02:54.927Z,58.98
2022-07-25T07:03:55.060Z,59.28
2022-07-25T07:04:54.849Z,60.08
2022-07-25T07:05:54.824Z,59.55
2022-07-25T07:06:54.863Z,60.14
2022-07-25T07:07:54.842Z,58.45
2022-07-25T07:08:54.847Z,59.65
2022-07-25T07:09:54.837Z,59.05
2022-07-25T07:10:54.858Z,59.45
2022-07-25T07:12:01.607Z,59.12
2022-07-25T07:12:58.566Z,59.59
2022-07-25T07:13:55.435Z,59.30
2022-07-25T07:14:54.904Z,58.80
2022-07-25T07:15:54.881Z,58.40
2022-07-25T07:16:54.849Z,57.68
2022-07-25T07:17:54.735Z,57.55
2022-07-25T07:18:54.732Z,57.95
2022-07-25T07:19:54.735Z,57.85
2022-07-25T07:20:54.704Z,58.34
2022-07-25T07:21:54.718Z,58.32
2022-07-25T07:22:54.711Z,56.93
2022-07-25T07:23:54.690Z,55.51
2022-07-25T07:24:54.683Z,55.91
2022-07-25T07:25:54.636Z,56.51
2022-07-25T07:26:54.679Z,57.17
2022-07-25T07:27:54.659Z,56.08
2022-07-25T07:28:54.640Z,56.74
2022-07-25T07:29:54.607Z,55.85
2022-07-25T07:31:56.671Z,54.94
2022-07-25T07:32:54.628Z,55.24
2022-07-25T07:33:55.589Z,54.71
2022-07-25T07:34:54.592Z,53.92
2022-07-25T07:35:54.551Z,54.29
2022-07-25T07:36:54.621Z,53.30
2022-07-25T07:37:54.577Z,54.19
2022-07-25T07:38:54.604Z,53.38
2022-07-25T07:39:54.509Z,53.45
2022-07-25T07:40:54.505Z,53.64
2022-07-25T07:41:55.562Z,53.33
2022-07-25T07:42:55.533Z,53.62
2022-07-25T07:43:54.527Z,53.30
2022-07-25T07:44:54.496Z,52.01
2022-07-25T07:45:54.484Z,52.09
2022-07-25T07:46:54.584Z,50.31
2022-07-25T07:47:54.492Z,50.38
2022-07-25T07:48:54.543Z,49.40
2022-07-25T07:49:54.435Z,49.87
2022-07-25T07:50:54.581Z,49.87
2022-07-25T07:51:54.453Z,50.04
2022-07-25T07:52:54.445Z,48.54
2022-07-25T07:53:55.236Z,48.94
2022-07-25T07:54:59.208Z,49.50
2022-07-25T07:55:56.353Z,49.70
2022-07-25T07:56:54.377Z,49.77
2022-07-25T07:57:54.387Z,48.79
2022-07-25T07:58:54.385Z,48.59
2022-07-25T07:59:54.346Z,48.96
2022-07-25T08:00:54.306Z,48.55
2022-07-25T08:01:54.368Z,47.76
2022-07-25T08:02:54.371Z,48.13
2022-07-25T08:03:54.321Z,47.54
2022-07-25T08:04:54.344Z,46.26
2022-07-25T08:05:54.282Z,47.52
2022-07-25T08:06:54.302Z,47.81
2022-07-25T08:07:54.258Z,47.91
2022-07-25T08:08:54.276Z,47.71
2022-07-25T08:09:54.300Z,48.08
2022-07-25T08:10:58.610Z,46.91
2022-07-25T08:11:55.236Z,46.49
2022-07-25T08:12:54.258Z,46.98
2022-07-25T08:13:54.231Z,46.30
2022-07-25T08:14:54.212Z,46.08
2022-07-25T08:15:54.281Z,46.27
2022-07-25T08:16:54.186Z,44.85
2022-07-25T08:17:54.153Z,43.29
2022-07-25T08:18:54.154Z,44.56
2022-07-25T08:19:54.174Z,43.88
2022-07-25T08:20:54.130Z,43.77
2022-07-25T08:21:54.165Z,44.54
2022-07-25T08:22:56.688Z,43.56
2022-07-25T08:23:55.106Z,44.15
2022-07-25T08:24:54.098Z,44.44
2022-07-25T08:25:54.097Z,43.24
2022-07-25T08:26:54.096Z,43.07
2022-07-25T08:27:54.102Z,43.23
2022-07-25T08:29:17.110Z,43.71
2022-07-25T08:29:56.135Z,42.03
2022-07-25T08:30:55.068Z,43.10
2022-07-25T08:31:54.094Z,43.01
2022-07-25T08:32:54.075Z,42.69
2022-07-25T08:33:54.020Z,43.28
2022-07-25T08:34:54.014Z,41.99
2022-07-25T08:35:54.055Z,42.55
2022-07-25T08:36:54.102Z,42.09
2022-07-25T08:37:54.019Z,42.01
2022-07-25T08:38:54.025Z,43.28
2022-07-25T08:39:54.024Z,43.46
2022-07-25T08:40:54.027Z,42.29
2022-07-25T08:41:54.028Z,41.87
2022-07-25T08:42:53.924Z,41.07
2022-07-25T08:43:54.006Z,40.95
2022-07-25T08:44:53.940Z,39.69
2022-07-25T08:45:54.019Z,39.51
2022-07-25T08:46:54.036Z,39.80
2022-07-25T08:47:53.910Z,39.80
2022-07-25T08:48:54.006Z,40.29
2022-07-25T08:49:53.978Z,39.51
2022-07-25T08:50:54.713Z,40.68
2022-07-25T08:51:54.611Z,39.31
2022-07-25T08:53:09.943Z,42.46
2022-07-25T08:53:55.838Z,39.47
2022-07-25T08:54:53.817Z,40.78
2022-07-25T08:55:53.851Z,41.96
2022-07-25T08:56:53.850Z,44.28
2022-07-25T08:57:53.834Z,40.56
2022-07-25T08:58:53.781Z,41.64
2022-07-25T08:59:53.780Z,41.07
2022-07-25T09:00:53.885Z,41.25
2022-07-25T09:01:53.879Z,42.03
2022-07-25T09:02:53.853Z,43.49
2022-07-25T09:03:53.826Z,41.03
2022-07-25T09:04:53.737Z,40.31
2022-07-25T09:05:53.735Z,41.02
2022-07-25T09:06:53.695Z,41.38
2022-07-25T09:07:53.740Z,41.75
2022-07-25T09:08:53.690Z,39.88
2022-07-25T09:09:53.670Z,40.06
2022-07-25T09:10:53.660Z,38.30
2022-07-25T09:11:53.674Z,39.26
2022-07-25T09:12:53.727Z,39.65
2022-07-25T09:13:53.682Z,38.96
2022-07-25T09:14:54.418Z,39.14
2022-07-25T09:15:53.764Z,38.89
2022-07-25T09:16:53.619Z,39.28
2022-07-25T09:17:53.641Z,39.94
2022-07-25T09:18:53.612Z,38.85
2022-07-25T09:19:53.592Z,38.83
2022-07-25T09:20:53.587Z,37.66
2022-07-25T09:21:53.590Z,38.23
2022-07-25T09:22:53.632Z,38.32
2022-07-25T09:23:53.613Z,38.03
2022-07-25T09:24:53.585Z,38.31
2022-07-25T09:25:53.583Z,38.21
2022-07-25T09:26:53.560Z,37.80
2022-07-25T09:27:53.654Z,37.51
2022-07-25T09:28:53.580Z,38.56
2022-07-25T09:29:53.561Z,37.47
2022-07-25T09:30:53.559Z,36.50
2022-07-25T09:31:53.506Z,36.79
2022-07-25T09:32:53.522Z,36.60
2022-07-25T09:33:53.521Z,35.74
2022-07-25T09:34:53.475Z,37.70
2022-07-25T09:35:53.520Z,38.29
2022-07-25T09:36:53.452Z,37.32
2022-07-25T09:37:53.456Z,35.39
2022-07-25T09:38:53.454Z,38.09
2022-07-25T09:39:53.416Z,37.49
2022-07-25T09:40:53.466Z,36.22
2022-07-25T09:41:53.467Z,35.33
2022-07-25T09:42:53.476Z,34.59
2022-07-25T09:43:53.407Z,36.75
2022-07-25T09:44:54.383Z,35.94
2022-07-25T09:45:53.416Z,37.18
2022-07-25T09:46:53.361Z,35.63
2022-07-25T09:47:53.415Z,35.45
2022-07-25T09:48:53.412Z,36.93
2022-07-25T09:49:53.378Z,36.99
2022-07-25T09:50:53.323Z,36.02
2022-07-25T09:51:53.332Z,35.80
2022-07-25T09:52:53.365Z,34.83
2022-07-25T09:53:53.314Z,35.40
2022-07-25T09:54:53.301Z,35.49
2022-07-25T09:55:53.286Z,33.25
2022-07-25T09:56:53.288Z,35.77
2022-07-25T09:57:53.294Z,32.65
2022-07-25T09:58:53.236Z,34.28
2022-07-25T09:59:53.296Z,35.25
2022-07-25T10:00:53.263Z,33.31
2022-07-25T10:01:53.246Z,33.60
2022-07-25T10:02:53.342Z,33.99
2022-07-25T10:03:53.232Z,32.84
2022-07-25T10:04:53.215Z,32.59
2022-07-25T10:05:53.216Z,33.86
2022-07-25T10:06:53.201Z,33.20
2022-07-25T10:07:53.157Z,34.58
2022-07-25T10:08:53.146Z,34.69
2022-07-25T10:09:53.139Z,34.67
2022-07-25T10:10:53.122Z,34.08
2022-07-25T10:11:53.123Z,32.44
2022-07-25T10:12:53.155Z,34.36
2022-07-25T10:13:53.124Z,33.47
2022-07-25T10:14:53.174Z,32.39
2022-07-25T10:15:53.151Z,33.83
2022-07-25T10:16:53.200Z,31.59
2022-07-25T10:17:53.128Z,33.02
2022-07-25T10:18:53.075Z,32.71
2022-07-25T10:19:58.309Z,30.86
2022-07-25T10:20:55.071Z,30.62
2022-07-25T10:21:53.021Z,31.18
2022-07-25T10:22:57.358Z,31.09
2022-07-25T10:23:54.022Z,31.74
2022-07-25T10:24:52.987Z,31.25
2022-07-25T10:25:53.025Z,31.15
2022-07-25T10:26:53.000Z,30.60
2022-07-25T10:27:52.973Z,33.31
2022-07-25T10:28:53.000Z,33.23
2022-07-25T10:29:52.971Z,31.67
2022-07-25T10:30:53.105Z,33.60
2022-07-25T10:31:52.934Z,32.09
2022-07-25T10:32:52.971Z,32.67
2022-07-25T10:33:53.192Z,33.07
2022-07-25T10:34:52.978Z,33.07
2022-07-25T10:35:52.916Z,33.57
2022-07-25T10:36:52.892Z,33.28
2022-07-25T10:37:52.948Z,32.62
2022-07-25T10:38:52.956Z,33.88
2022-07-25T10:39:52.883Z,32.54
2022-07-25T10:40:52.860Z,34.12
2022-07-25T10:41:52.817Z,33.85
2022-07-25T10:42:52.871Z,33.85
2022-07-25T10:43:52.847Z,33.75
2022-07-25T10:44:52.827Z,34.92
2022-07-25T10:45:52.864Z,35.50
2022-07-25T10:46:52.829Z,35.02
2022-07-25T10:47:52.761Z,34.82
2022-07-25T10:48:52.953Z,34.33
2022-07-25T10:50:15.171Z,34.22
2022-07-25T10:50:56.283Z,34.42
2022-07-25T10:51:53.805Z,33.93
2022-07-25T10:52:52.787Z,33.95
2022-07-25T10:53:52.729Z,35.50
2022-07-25T10:54:52.733Z,35.80
2022-07-25T10:56:05.355Z,34.94
2022-07-25T10:56:54.698Z,35.89
2022-07-25T10:58:16.228Z,34.43
2022-07-25T10:58:54.701Z,34.82
2022-07-25T10:59:53.703Z,35.58
2022-07-25T11:00:52.751Z,33.95
2022-07-25T11:01:52.747Z,34.82
2022-07-25T11:02:52.777Z,34.43
2022-07-25T11:03:52.605Z,33.67
2022-07-25T11:04:52.649Z,35.61
2022-07-25T11:05:52.643Z,34.12
2022-07-25T11:06:52.602Z,33.91
2022-07-25T11:08:18.853Z,32.54
2022-07-25T11:08:54.605Z,33.04
2022-07-25T11:09:52.551Z,33.12
2022-07-25T11:10:53.801Z,33.06
2022-07-25T11:11:52.606Z,32.97
2022-07-25T11:12:52.579Z,34.33
2022-07-25T11:13:53.568Z,33.64
2022-07-25T11:14:52.493Z,32.94
2022-07-25T11:15:52.542Z,33.11
2022-07-25T11:16:52.603Z,32.62
2022-07-25T11:17:52.490Z,31.44
2022-07-25T11:18:52.466Z,32.97
2022-07-25T11:19:52.496Z,30.71
2022-07-25T11:20:52.534Z,29.73
2022-07-25T11:21:52.417Z,30.10
2022-07-25T11:22:52.539Z,31.26
2022-07-25T11:23:52.485Z,29.16
2022-07-25T11:24:52.384Z,29.58
2022-07-25T11:25:52.442Z,29.38
2022-07-25T11:26:52.389Z,31.74
2022-07-25T11:27:52.396Z,33.76
2022-07-25T11:28:52.380Z,30.37
2022-07-25T11:29:52.357Z,31.62
2022-07-25T11:30:52.359Z,30.54
2022-07-25T11:31:53.439Z,29.36
2022-07-25T11:32:52.334Z,30.32
2022-07-25T11:33:52.360Z,29.63
2022-07-25T11:34:52.392Z,29.91
2022-07-25T11:35:52.330Z,30.94
2022-07-25T11:36:52.285Z,30.27
2022-07-25T11:37:52.266Z,29.46
2022-07-25T11:38:52.302Z,27.61
2022-07-25T11:39:53.747Z,29.55
2022-07-25T11:40:52.239Z,28.47
2022-07-25T11:41:52.384Z,28.55
2022-07-25T11:42:52.262Z,28.63
2022-07-25T11:43:52.319Z,27.67
2022-07-25T11:44:52.194Z,27.67
2022-07-25T11:45:52.288Z,27.17
2022-07-25T11:46:52.213Z,26.79
2022-07-25T11:47:52.210Z,27.00
2022-07-25T11:48:52.253Z,28.85
2022-07-25T11:49:52.218Z,28.94
2022-07-25T11:50:52.199Z,27.59
2022-07-25T11:51:52.181Z,28.53
2022-07-25T11:52:52.126Z,27.86
2022-07-25T11:53:52.227Z,27.85
2022-07-25T11:54:52.183Z,26.79
2022-07-25T11:55:52.159Z,27.67
2022-07-25T11:56:52.121Z,27.57
2022-07-25T11:57:52.179Z,28.92
2022-07-25T11:58:52.118Z,27.76
2022-07-25T11:59:52.196Z,27.86
2022-07-25T12:00:52.088Z,27.37
2022-07-25T12:01:52.135Z,26.79
2022-07-25T12:02:52.174Z,27.27
2022-07-25T12:03:52.151Z,28.31
2022-07-25T12:04:52.043Z,26.10
2022-07-25T12:05:52.113Z,28.26
2022-07-25T12:06:52.041Z,29.61
2022-07-25T12:07:52.049Z,28.08
2022-07-25T12:08:52.015Z,28.09
2022-07-25T12:09:52.029Z,28.97
2022-07-25T12:10:51.999Z,29.90
2022-07-25T12:11:51.983Z,27.78
2022-07-25T12:12:52.004Z,27.28
2022-07-25T12:13:51.972Z,28.05
2022-07-25T12:14:52.027Z,26.53
2022-07-25T12:15:52.024Z,26.91
2022-07-25T12:16:52.058Z,28.15
2022-07-25T12:17:52.014Z,26.12
2022-07-25T12:18:52.064Z,27.00
2022-07-25T12:19:51.950Z,26.55
2022-07-25T12:20:51.907Z,28.98
2022-07-25T12:21:51.918Z,28.58
2022-07-25T12:22:51.956Z,27.81
2022-07-25T12:23:51.994Z,26.73
2022-07-25T12:24:51.956Z,27.80
2022-07-25T12:25:51.918Z,26.07
2022-07-25T12:26:52.925Z,26.84
2022-07-25T12:27:51.864Z,26.86
2022-07-25T12:28:51.941Z,27.24
2022-07-25T12:29:51.848Z,26.77
2022-07-25T12:30:56.558Z,27.44
2022-07-25T12:31:52.842Z,28.11
2022-07-25T12:32:51.886Z,27.44
2022-07-25T12:33:51.891Z,29.16
2022-07-25T12:34:51.810Z,28.19
2022-07-25T12:35:51.803Z,27.42
2022-07-25T12:36:51.842Z,26.86
2022-07-25T12:37:51.901Z,27.83
2022-07-25T12:38:51.862Z,28.69
2022-07-25T12:39:51.802Z,28.48
2022-07-25T12:40:51.799Z,28.08
2022-07-25T12:41:51.832Z,27.70
2022-07-25T12:42:51.731Z,28.55
2022-07-25T12:43:51.857Z,26.61
2022-07-25T12:44:51.740Z,25.92
2022-07-25T12:45:51.792Z,26.87
2022-07-25T12:46:51.705Z,26.78
2022-07-25T12:47:51.721Z,27.08
2022-07-25T12:48:51.835Z,26.59
2022-07-25T12:49:51.800Z,26.65
2022-07-25T12:50:51.736Z,25.68
2022-07-25T12:51:57.686Z,26.93
2022-07-25T12:52:53.660Z,25.88
2022-07-25T12:53:51.744Z,25.32